createdAt,value
2023-03-04T00:01:36.176Z,3.20
2023-03-04T00:04:04.237Z,3.40
2023-03-04T00:06:33.848Z,3.20
2023-03-04T00:09:03.807Z,3.40
2023-03-04T00:11:32.193Z,3.20
2023-03-04T00:14:00.284Z,3.20
2023-03-04T00:16:28.676Z,3.30
2023-03-04T00:18:57.536Z,3.50
2023-03-04T00:21:25.874Z,3.30
2023-03-04T00:23:55.338Z,3.30
2023-03-04T00:26:23.454Z,3.40
2023-03-04T00:28:51.543Z,3.40
2023-03-04T00:31:19.699Z,3.40
2023-03-04T00:33:47.717Z,3.40
2023-03-04T00:36:15.792Z,3.60
2023-03-04T00:38:43.871Z,3.40
2023-03-04T00:41:13.354Z,3.40
2023-03-04T00:43:41.440Z,3.40
2023-03-04T00:46:09.569Z,3.40
2023-03-04T00:48:38.618Z,3.40
2023-03-04T00:51:07.892Z,3.40
2023-03-04T00:53:36.019Z,3.50
2023-03-04T00:56:04.289Z,3.40
2023-03-04T00:58:33.898Z,3.50
2023-03-04T01:01:01.976Z,3.40
2023-03-04T01:03:32.640Z,3.50
2023-03-04T01:06:00.794Z,3.50
2023-03-04T01:08:28.979Z,3.80
2023-03-04T01:10:57.070Z,3.50
2023-03-04T01:13:25.190Z,3.60
2023-03-04T01:15:54.600Z,3.40
2023-03-04T01:18:22.846Z,3.50
2023-03-04T01:20:51.033Z,3.50
2023-03-04T01:23:19.252Z,3.50
2023-03-04T01:25:47.303Z,3.50
2023-03-04T01:28:15.401Z,3.70
2023-03-04T01:30:43.452Z,3.80
2023-03-04T01:33:12.934Z,3.60
2023-03-04T01:35:40.961Z,3.50
2023-03-04T01:38:09.012Z,3.80
2023-03-04T01:40:38.071Z,3.60
2023-03-04T01:43:06.582Z,3.60
2023-03-04T01:45:39.984Z,3.60
2023-03-04T01:48:10.259Z,3.60
2023-03-04T01:50:39.941Z,3.70
2023-03-04T01:53:07.987Z,3.60
2023-03-04T01:55:36.003Z,3.60
2023-03-04T01:58:07.001Z,3.60
2023-03-04T02:00:37.345Z,3.60
2023-03-04T02:03:08.488Z,3.70
2023-03-04T02:05:38.552Z,3.70
2023-03-04T02:08:09.134Z,3.70
2023-03-04T02:10:37.762Z,3.70
2023-03-04T02:13:05.843Z,3.70
2023-03-04T02:15:34.079Z,3.70
2023-03-04T02:18:02.458Z,3.70
2023-03-04T02:20:41.591Z,3.70
2023-03-04T02:23:16.943Z,3.70
2023-03-04T02:25:49.990Z,3.70
2023-03-04T02:28:19.652Z,3.80
2023-03-04T02:30:47.984Z,3.70
2023-03-04T02:33:18.098Z,3.70
2023-03-04T02:35:46.676Z,3.60
2023-03-04T02:38:14.899Z,3.80
2023-03-04T02:40:46.658Z,3.80
2023-03-04T02:43:14.951Z,3.80
2023-03-04T02:45:45.931Z,3.90
2023-03-04T02:48:15.081Z,3.90
2023-03-04T02:50:45.348Z,3.90
2023-03-04T02:53:13.567Z,3.90
2023-03-04T02:55:42.403Z,4.00
2023-03-04T02:58:10.568Z,3.90
2023-03-04T03:00:38.740Z,3.70
2023-03-04T03:03:08.539Z,3.90
2023-03-04T03:05:37.502Z,3.90
2023-03-04T03:08:06.328Z,3.90
2023-03-04T03:10:34.954Z,3.90
2023-03-04T03:13:03.083Z,3.90
2023-03-04T03:15:31.159Z,3.90
2023-03-04T03:17:59.692Z,3.90
2023-03-04T03:20:29.101Z,4.00
2023-03-04T03:22:57.096Z,3.90
2023-03-04T03:25:25.084Z,3.90
2023-03-04T03:27:53.230Z,3.90
2023-03-04T03:30:21.695Z,3.90
2023-03-04T03:32:49.713Z,3.90
2023-03-04T03:35:17.934Z,3.90
2023-03-04T03:37:49.024Z,3.90
2023-03-04T03:40:17.281Z,3.90
2023-03-04T03:42:45.312Z,3.90
2023-03-04T03:45:13.796Z,3.90
2023-03-04T03:47:41.811Z,3.70
2023-03-04T03:50:10.794Z,3.80
2023-03-04T03:52:39.166Z,3.90
2023-03-04T03:55:09.660Z,3.80
2023-03-04T03:57:37.682Z,3.70
2023-03-04T04:00:06.903Z,3.90
2023-03-04T04:02:35.187Z,3.90
2023-03-04T04:05:03.259Z,3.90
2023-03-04T04:07:31.321Z,3.90
2023-03-04T04:09:59.508Z,4.10
2023-03-04T04:12:29.102Z,3.90
2023-03-04T04:14:57.075Z,3.90
2023-03-04T04:17:25.157Z,3.90
2023-03-04T04:19:53.190Z,3.90
2023-03-04T04:22:22.421Z,4.00
2023-03-04T04:24:50.475Z,3.90
2023-03-04T04:27:18.514Z,4.00
2023-03-04T04:29:47.863Z,3.90
2023-03-04T04:32:15.873Z,3.90
2023-03-04T04:34:43.869Z,4.10
2023-03-04T04:37:11.980Z,4.20
2023-03-04T04:39:40.210Z,3.90
2023-03-04T04:42:08.319Z,4.00
2023-03-04T04:44:38.967Z,4.20
2023-03-04T04:47:08.566Z,3.90
2023-03-04T04:49:36.579Z,3.90
2023-03-04T04:52:05.097Z,4.20
2023-03-04T04:54:33.288Z,4.00
2023-03-04T04:57:01.373Z,4.00
2023-03-04T04:59:29.372Z,4.00
2023-03-04T05:01:57.499Z,4.00
2023-03-04T05:04:26.963Z,4.00
2023-03-04T05:06:54.979Z,4.00
2023-03-04T05:09:23.033Z,4.00
2023-03-04T05:11:51.380Z,4.00
2023-03-04T05:14:19.574Z,4.00
2023-03-04T05:16:52.933Z,4.00
2023-03-04T05:19:21.238Z,4.00
2023-03-04T05:21:50.677Z,4.00
2023-03-04T05:24:18.726Z,4.00
2023-03-04T05:26:46.832Z,4.10
2023-03-04T05:29:14.879Z,4.00
2023-03-04T05:31:42.921Z,4.00
2023-03-04T05:34:10.898Z,4.10
2023-03-04T05:36:38.961Z,4.10
2023-03-04T05:39:08.558Z,4.10
2023-03-04T05:41:36.634Z,4.10
2023-03-04T05:44:04.863Z,4.10
2023-03-04T05:46:33.790Z,4.10
2023-03-04T05:49:02.005Z,4.10
2023-03-04T05:51:30.079Z,4.10
2023-03-04T05:53:58.215Z,4.10
2023-03-04T05:56:28.118Z,4.40
2023-03-04T05:58:59.121Z,4.20
2023-03-04T06:01:27.597Z,4.20
2023-03-04T06:03:55.765Z,4.20
2023-03-04T06:06:24.140Z,4.20
2023-03-04T06:08:52.409Z,4.20
2023-03-04T06:11:20.731Z,4.20
2023-03-04T06:13:50.328Z,4.20
2023-03-04T06:16:18.637Z,4.20
2023-03-04T06:18:46.884Z,4.20
2023-03-04T06:21:14.957Z,4.40
2023-03-04T06:23:43.363Z,4.20
2023-03-04T06:26:15.533Z,4.20
2023-03-04T06:28:44.256Z,4.30
2023-03-04T06:31:13.810Z,4.30
2023-03-04T06:33:41.998Z,4.30
2023-03-04T06:36:10.373Z,4.30
2023-03-04T06:38:38.412Z,4.40
2023-03-04T06:41:11.169Z,4.30
2023-03-04T06:43:39.991Z,4.40
2023-03-04T06:46:08.532Z,4.40
2023-03-04T06:48:38.397Z,4.40
2023-03-04T06:51:07.760Z,4.50
2023-03-04T06:53:36.166Z,4.50
2023-03-04T06:56:04.370Z,4.50
2023-03-04T06:58:32.538Z,4.50
2023-03-04T07:01:11.820Z,4.60
2023-03-04T07:03:41.497Z,4.60
2023-03-04T07:06:11.430Z,4.70
2023-03-04T07:08:39.829Z,4.70
2023-03-04T07:11:08.342Z,4.70
2023-03-04T07:13:38.379Z,4.80
2023-03-04T07:16:07.915Z,4.80
2023-03-04T07:18:36.422Z,5.00
2023-03-04T07:21:06.260Z,5.10
2023-03-04T07:23:34.977Z,5.30
2023-03-04T07:26:03.152Z,5.20
2023-03-04T07:28:31.413Z,5.40
2023-03-04T07:31:08.529Z,5.40
2023-03-04T07:33:36.646Z,5.50
2023-03-04T07:36:06.613Z,5.50
2023-03-04T07:38:34.960Z,5.60
2023-03-04T07:41:03.586Z,5.70
2023-03-04T07:43:31.700Z,5.80
2023-03-04T07:46:03.305Z,5.70
2023-03-04T07:48:31.553Z,5.60
2023-03-04T07:51:09.814Z,5.60
2023-03-04T07:53:39.517Z,5.60
2023-03-04T07:56:09.405Z,5.70
2023-03-04T07:58:37.659Z,5.80
2023-03-04T08:01:10.979Z,5.90
2023-03-04T08:03:39.086Z,5.90
2023-03-04T08:06:10.719Z,5.80
2023-03-04T08:08:39.283Z,6.00
2023-03-04T08:11:07.976Z,6.10
2023-03-04T08:13:36.903Z,6.10
2023-03-04T08:16:05.986Z,6.10
2023-03-04T08:18:34.535Z,6.10
2023-03-04T08:21:02.948Z,6.20
2023-03-04T08:23:32.464Z,6.20
2023-03-04T08:26:01.565Z,6.30
2023-03-04T08:28:29.776Z,6.10
2023-03-04T08:30:58.229Z,6.20
2023-03-04T08:33:26.357Z,6.20
2023-03-04T08:35:54.768Z,6.10
2023-03-04T08:38:23.085Z,5.90
2023-03-04T08:40:55.772Z,5.90
2023-03-04T08:43:25.041Z,5.80
2023-03-04T08:45:53.737Z,5.70
2023-03-04T08:48:22.695Z,6.00
2023-03-04T08:50:54.119Z,5.70
2023-03-04T08:53:23.224Z,5.70
2023-03-04T08:55:53.207Z,5.70
2023-03-04T08:58:22.828Z,5.70
2023-03-04T09:00:52.214Z,5.80
2023-03-04T09:03:20.912Z,5.80
2023-03-04T09:05:49.855Z,5.80
2023-03-04T09:08:18.548Z,5.80
2023-03-04T09:10:47.864Z,5.80
2023-03-04T09:13:16.654Z,5.70
2023-03-04T09:15:48.028Z,5.70
2023-03-04T09:18:17.739Z,5.60
2023-03-04T09:20:45.984Z,5.50
2023-03-04T09:23:15.026Z,5.50
2023-03-04T09:25:44.475Z,5.50
2023-03-04T09:28:13.220Z,5.50
2023-03-04T09:30:41.867Z,5.50
2023-03-04T09:33:11.891Z,5.60
2023-03-04T09:35:40.049Z,5.70
2023-03-04T09:38:08.974Z,5.70
2023-03-04T09:40:42.257Z,5.70
2023-03-04T09:43:19.477Z,5.70
2023-03-04T09:45:51.442Z,5.70
2023-03-04T09:48:26.185Z,5.70
2023-03-04T09:51:07.948Z,5.70
2023-03-04T09:53:46.578Z,5.80
2023-03-04T09:56:15.592Z,5.90
2023-03-04T09:58:55.927Z,5.90
2023-03-04T10:01:27.762Z,5.90
2023-03-04T10:04:02.905Z,5.90
2023-03-04T10:06:33.045Z,5.90
2023-03-04T10:09:03.923Z,5.90
2023-03-04T10:11:38.384Z,6.00
2023-03-04T10:14:19.834Z,6.00
2023-03-04T10:16:52.906Z,5.90
2023-03-04T10:19:31.229Z,5.90
2023-03-04T10:22:00.160Z,5.90
2023-03-04T10:24:30.524Z,6.00
2023-03-04T10:27:04.958Z,5.90
2023-03-04T10:29:34.714Z,6.00
2023-03-04T10:32:03.119Z,6.00
2023-03-04T10:34:32.715Z,6.10
2023-03-04T10:37:02.831Z,6.10
2023-03-04T10:39:33.323Z,6.00
2023-03-04T10:42:04.029Z,6.10
2023-03-04T10:44:34.605Z,6.10
2023-03-04T10:47:03.219Z,6.10
2023-03-04T10:49:32.786Z,6.20
2023-03-04T10:52:05.690Z,6.20
2023-03-04T10:54:41.927Z,6.10
2023-03-04T10:57:18.014Z,6.00
2023-03-04T10:59:50.583Z,6.00
2023-03-04T11:02:23.119Z,5.90
2023-03-04T11:04:55.288Z,5.90
2023-03-04T11:07:28.780Z,5.80
2023-03-04T11:09:58.453Z,5.70
2023-03-04T11:12:35.218Z,5.80
2023-03-04T11:15:04.180Z,5.90
2023-03-04T11:17:44.415Z,6.00
2023-03-04T11:20:19.464Z,6.20
2023-03-04T11:22:47.950Z,6.50
2023-03-04T11:25:26.365Z,6.70
2023-03-04T11:27:57.820Z,6.90
2023-03-04T11:30:36.286Z,7.00
2023-03-04T11:33:13.997Z,7.10
2023-03-04T11:35:56.185Z,7.00
2023-03-04T11:38:29.934Z,6.90
2023-03-04T11:41:01.526Z,6.70
2023-03-04T11:43:35.892Z,6.80
2023-03-04T11:46:19.513Z,6.80
2023-03-04T11:48:54.884Z,6.80
2023-03-04T11:51:28.677Z,6.70
2023-03-04T11:54:18.560Z,6.70
2023-03-04T11:56:49.844Z,6.60
2023-03-04T11:59:55.871Z,6.50
2023-03-04T12:02:28.571Z,6.60
2023-03-04T12:05:16.525Z,6.70
2023-03-04T12:08:11.225Z,6.90
2023-03-04T12:10:46.099Z,7.40
2023-03-04T12:13:38.795Z,8.00
2023-03-04T12:16:21.159Z,8.30
2023-03-04T12:19:03.475Z,8.40
2023-03-04T12:21:50.387Z,8.30
2023-03-04T12:24:43.165Z,8.10
2023-03-04T12:27:20.900Z,8.00
2023-03-04T12:29:58.429Z,7.60
2023-03-04T12:32:35.783Z,7.50
2023-03-04T12:35:30.023Z,7.20
2023-03-04T12:38:11.441Z,7.10
2023-03-04T12:40:50.185Z,7.00
2023-03-04T12:43:36.089Z,6.90
2023-03-04T12:46:24.582Z,6.90
2023-03-04T12:49:02.149Z,6.90
2023-03-04T12:51:36.013Z,7.10
2023-03-04T12:54:22.134Z,7.30
2023-03-04T12:56:58.537Z,7.40
2023-03-04T12:59:30.141Z,7.40
2023-03-04T13:02:11.645Z,7.40
2023-03-04T13:04:49.288Z,7.40
2023-03-04T13:07:23.461Z,7.40
2023-03-04T13:09:57.335Z,7.40
2023-03-04T13:12:26.968Z,7.30
2023-03-04T13:15:28.665Z,7.20
2023-03-04T13:17:58.153Z,7.10
2023-03-04T13:20:34.934Z,7.10
2023-03-04T13:23:04.961Z,7.00
2023-03-04T13:25:39.923Z,7.00
2023-03-04T13:28:29.041Z,7.00
2023-03-04T13:31:20.605Z,7.00
2023-03-04T13:34:05.016Z,7.00
2023-03-04T13:36:52.099Z,7.10
2023-03-04T13:39:34.364Z,7.30
2023-03-04T13:42:03.885Z,7.40
2023-03-04T13:44:58.052Z,7.50
2023-03-04T13:47:48.769Z,7.70
2023-03-04T13:50:49.142Z,7.70
2023-03-04T13:53:38.636Z,7.90
2023-03-04T13:56:24.025Z,8.00
2023-03-04T13:59:02.244Z,8.00
2023-03-04T14:01:33.247Z,8.00
2023-03-04T14:04:02.490Z,8.00
2023-03-04T14:06:32.604Z,8.00
2023-03-04T14:09:00.795Z,8.10
2023-03-04T14:11:34.324Z,8.10
2023-03-04T14:14:07.298Z,8.10
2023-03-04T14:16:42.024Z,8.20
2023-03-04T14:19:17.987Z,8.30
2023-03-04T14:21:47.220Z,8.40
2023-03-04T14:24:17.771Z,8.40
2023-03-04T14:26:46.028Z,8.60
2023-03-04T14:29:25.503Z,8.70
2023-03-04T14:31:56.271Z,8.50
2023-03-04T14:34:29.960Z,8.50
2023-03-04T14:36:58.064Z,8.30
2023-03-04T14:39:29.824Z,8.10
2023-03-04T14:42:01.253Z,8.00
2023-03-04T14:44:36.058Z,7.90
2023-03-04T14:47:14.121Z,7.70
2023-03-04T14:49:42.373Z,7.70
2023-03-04T14:52:31.012Z,7.50
2023-03-04T14:55:05.791Z,7.40
2023-03-04T14:57:35.906Z,7.30
2023-03-04T15:00:19.163Z,7.20
2023-03-04T15:02:51.226Z,7.20
2023-03-04T15:05:25.997Z,7.10
2023-03-04T15:08:01.157Z,7.10
2023-03-04T15:10:31.937Z,7.00
2023-03-04T15:13:03.216Z,7.00
2023-03-04T15:15:44.130Z,7.00
2023-03-04T15:18:26.271Z,7.00
2023-03-04T15:21:00.602Z,7.10
2023-03-04T15:23:30.613Z,7.20
2023-03-04T15:26:00.528Z,7.20
2023-03-04T15:28:34.616Z,7.10
2023-03-04T15:31:02.996Z,7.00
2023-03-04T15:33:32.761Z,7.30
2023-03-04T15:36:03.682Z,7.00
2023-03-04T15:38:31.910Z,7.00
2023-03-04T15:41:00.158Z,7.00
2023-03-04T15:43:28.619Z,7.00
2023-03-04T15:45:56.738Z,7.00
2023-03-04T15:48:24.905Z,7.00
2023-03-04T15:50:57.629Z,7.00
2023-03-04T15:53:33.001Z,7.00
2023-03-04T15:56:01.693Z,7.00
2023-03-04T15:58:32.096Z,7.20
2023-03-04T16:01:02.122Z,6.90
2023-03-04T16:03:30.487Z,6.80
2023-03-04T16:06:00.203Z,6.80
2023-03-04T16:08:28.373Z,6.70
2023-03-04T16:10:56.581Z,6.70
2023-03-04T16:13:25.247Z,6.60
2023-03-04T16:15:53.643Z,6.50
2023-03-04T16:18:21.908Z,6.50
2023-03-04T16:20:52.148Z,6.50
2023-03-04T16:23:24.223Z,6.40
2023-03-04T16:25:56.123Z,6.40
2023-03-04T16:28:24.320Z,6.40
2023-03-04T16:30:52.489Z,6.30
2023-03-04T16:33:20.683Z,6.40
2023-03-04T16:35:48.918Z,6.20
2023-03-04T16:38:26.033Z,6.30
2023-03-04T16:40:54.510Z,6.20
2023-03-04T16:43:22.812Z,6.20
2023-03-04T16:45:51.228Z,6.20
2023-03-04T16:48:20.325Z,6.10
2023-03-04T16:50:48.667Z,6.10
2023-03-04T16:53:35.082Z,6.10
2023-03-04T16:56:12.908Z,6.00
2023-03-04T16:58:41.421Z,6.00
2023-03-04T17:01:17.629Z,6.10
2023-03-04T17:03:46.084Z,6.10
2023-03-04T17:06:15.714Z,6.20
2023-03-04T17:08:45.199Z,6.10
2023-03-04T17:11:16.912Z,5.90
2023-03-04T17:13:45.873Z,5.90
2023-03-04T17:16:15.286Z,5.70
2023-03-04T17:18:45.763Z,5.50
2023-03-04T17:21:16.230Z,5.60
2023-03-04T17:23:45.745Z,5.70
2023-03-04T17:26:15.551Z,5.60
2023-03-04T17:28:43.940Z,5.50
2023-03-04T17:31:12.981Z,5.50
2023-03-04T17:33:41.318Z,5.40
2023-03-04T17:36:12.100Z,5.30
2023-03-04T17:38:40.534Z,5.20
2023-03-04T17:41:13.382Z,5.10
2023-03-04T17:43:44.494Z,5.10
2023-03-04T17:46:14.516Z,5.00
2023-03-04T17:48:43.270Z,5.00
2023-03-04T17:51:12.280Z,5.00
2023-03-04T17:53:40.822Z,4.90
2023-03-04T17:56:12.294Z,4.90
2023-03-04T17:58:40.641Z,4.90
2023-03-04T18:01:16.542Z,4.80
2023-03-04T18:03:44.746Z,4.80
2023-03-04T18:06:13.241Z,4.90
2023-03-04T18:08:41.569Z,4.80
2023-03-04T18:11:11.349Z,4.90
2023-03-04T18:13:39.669Z,4.80
2023-03-04T18:16:08.972Z,4.80
2023-03-04T18:18:38.023Z,4.80
2023-03-04T18:21:07.463Z,4.80
2023-03-04T18:23:36.010Z,4.80
2023-03-04T18:26:04.581Z,4.90
2023-03-04T18:28:34.207Z,4.80
2023-03-04T18:31:02.707Z,4.80
2023-03-04T18:33:31.313Z,4.90
2023-03-04T18:36:00.342Z,4.90
2023-03-04T18:38:28.983Z,4.90
2023-03-04T18:40:59.960Z,4.80
2023-03-04T18:43:28.065Z,5.00
2023-03-04T18:46:06.008Z,4.80
2023-03-04T18:48:37.691Z,4.70
2023-03-04T18:51:06.161Z,4.70
2023-03-04T18:53:34.353Z,4.60
2023-03-04T18:56:09.129Z,4.50
2023-03-04T18:58:41.388Z,4.60
2023-03-04T19:01:13.128Z,4.60
2023-03-04T19:03:42.466Z,4.60
2023-03-04T19:06:10.831Z,4.40
2023-03-04T19:08:39.013Z,4.50
2023-03-04T19:11:07.971Z,4.50
2023-03-04T19:16:10.671Z,4.50
2023-03-04T19:18:38.738Z,4.50
2023-03-04T19:21:07.631Z,4.70
2023-03-04T19:23:36.143Z,4.50
2023-03-04T19:26:06.423Z,4.50
2023-03-04T19:28:34.530Z,4.50
2023-03-04T19:31:06.989Z,4.50
2023-03-04T19:33:38.330Z,4.40
2023-03-04T19:36:08.755Z,4.40
2023-03-04T19:38:37.103Z,4.50
2023-03-04T19:41:12.365Z,4.60
2023-03-04T19:43:40.678Z,4.50
2023-03-04T19:46:09.709Z,4.50
2023-03-04T19:48:40.642Z,4.50
2023-03-04T19:51:15.709Z,4.50
2023-03-04T19:53:45.996Z,4.50
2023-03-04T19:56:14.669Z,4.50
2023-03-04T19:58:42.825Z,4.50
2023-03-04T20:01:21.574Z,4.50
2023-03-04T20:03:51.148Z,4.50
2023-03-04T20:06:19.253Z,4.50
2023-03-04T20:08:47.430Z,4.70
2023-03-04T20:11:15.564Z,4.50
2023-03-04T20:13:43.673Z,4.50
2023-03-04T20:16:13.033Z,4.50
2023-03-04T20:18:41.761Z,4.40
2023-03-04T20:21:12.030Z,4.40
2023-03-04T20:23:40.177Z,4.40
2023-03-04T20:26:08.369Z,4.40
2023-03-04T20:28:36.763Z,4.30
2023-03-04T20:31:12.687Z,4.40
2023-03-04T20:33:40.822Z,4.40
2023-03-04T20:36:10.612Z,4.40
2023-03-04T20:38:38.676Z,4.40
2023-03-04T20:41:07.213Z,4.40
2023-03-04T20:43:35.358Z,4.40
2023-03-04T20:46:25.734Z,4.50
2023-03-04T20:48:53.864Z,4.50
2023-03-04T20:51:26.012Z,4.50
2023-03-04T20:53:55.469Z,4.80
2023-03-04T20:56:24.479Z,4.50
2023-03-04T20:58:54.012Z,4.50
2023-03-04T21:01:23.560Z,4.50
2023-03-04T21:03:52.079Z,4.50
2023-03-04T21:06:20.454Z,4.50
2023-03-04T21:08:49.977Z,4.50
2023-03-04T21:11:19.212Z,4.50
2023-03-04T21:13:53.906Z,4.40
2023-03-04T21:16:22.131Z,4.60
2023-03-04T21:18:50.734Z,4.40
2023-03-04T21:21:23.071Z,4.40
2023-03-04T21:23:54.183Z,4.40
2023-03-04T21:26:23.523Z,4.40
2023-03-04T21:28:53.111Z,4.30
2023-03-04T21:31:23.860Z,4.30
2023-03-04T21:33:53.634Z,4.30
2023-03-04T21:36:21.956Z,4.30
2023-03-04T21:38:50.740Z,4.30
2023-03-04T21:41:22.803Z,4.40
2023-03-04T21:43:52.154Z,4.30
2023-03-04T21:46:20.742Z,4.30
2023-03-04T21:48:48.904Z,4.30
2023-03-04T21:51:18.626Z,4.30
2023-03-04T21:53:46.844Z,4.30
2023-03-04T21:56:15.659Z,4.30
2023-03-04T21:58:45.987Z,4.30
2023-03-04T22:01:14.953Z,4.30
2023-03-04T22:03:43.181Z,4.40
2023-03-04T22:06:13.369Z,4.30
2023-03-04T22:08:42.545Z,4.20
2023-03-04T22:11:12.631Z,4.10
2023-03-04T22:13:40.902Z,4.10
2023-03-04T22:16:10.888Z,4.10
2023-03-04T22:18:40.742Z,4.30
2023-03-04T22:21:10.724Z,4.00
2023-03-04T22:23:39.016Z,4.00
2023-03-04T22:26:09.081Z,4.00
2023-03-04T22:28:37.632Z,4.00
2023-03-04T22:31:16.615Z,4.10
2023-03-04T22:33:44.850Z,4.30
2023-03-04T22:36:13.853Z,4.10
2023-03-04T22:38:44.607Z,4.00
2023-03-04T22:41:17.484Z,4.00
2023-03-04T22:43:46.382Z,4.00
2023-03-04T22:46:17.717Z,4.00
2023-03-04T22:48:45.758Z,3.90
2023-03-04T22:51:13.925Z,3.90
2023-03-04T22:53:43.550Z,3.80
2023-03-04T22:56:13.971Z,3.80
2023-03-04T22:58:42.358Z,3.80
2023-03-04T23:01:11.117Z,3.80
2023-03-04T23:03:41.977Z,3.70
2023-03-04T23:06:13.127Z,3.80
2023-03-04T23:08:43.057Z,3.80
2023-03-04T23:11:12.324Z,3.70
2023-03-04T23:13:42.729Z,3.70
2023-03-04T23:16:13.337Z,3.70
2023-03-04T23:18:44.400Z,3.70
2023-03-04T23:21:14.665Z,3.70
2023-03-04T23:23:43.435Z,3.70
2023-03-04T23:26:17.677Z,3.70
2023-03-04T23:28:45.933Z,3.70
2023-03-04T23:31:15.372Z,3.70
2023-03-04T23:33:45.626Z,3.60
2023-03-04T23:36:15.559Z,3.60
2023-03-04T23:38:44.675Z,3.60
2023-03-04T23:41:13.663Z,3.60
2023-03-04T23:43:41.739Z,3.80
2023-03-04T23:46:11.471Z,3.60
2023-03-04T23:48:40.728Z,3.70
2023-03-04T23:51:10.376Z,3.70
2023-03-04T23:53:39.276Z,3.70
2023-03-04T23:56:09.512Z,3.70
2023-03-04T23:58:37.533Z,3.60
